sensor_id;sensor_type;location;lat;lon;timestamp;P1;durP1;ratioP1;P2;durP2;ratioP2
25637;SDS011;13496;51.040;13.680;2023-05-10T00:01:06;4.95;;;3.85;;
25637;SDS011;13496;51.040;13.680;2023-05-10T00:06:07;3.90;;;3.40;;
25637;SDS011;13496;51.040;13.680;2023-05-10T00:11:09;4.25;;;3.55;;
25637;SDS011;13496;51.040;13.680;2023-05-10T00:16:11;3.95;;;3.40;;
25637;SDS011;13496;51.040;13.680;2023-05-10T00:21:14;4.50;;;3.83;;
25637;SDS011;13496;51.040;13.680;2023-05-10T00:26:15;4.10;;;3.67;;
25637;SDS011;13496;51.040;13.680;2023-05-10T00:31:21;3.78;;;3.22;;
25637;SDS011;13496;51.040;13.680;2023-05-10T00:36:22;5.78;;;3.55;;
25637;SDS011;13496;51.040;13.680;2023-05-10T00:41:24;3.90;;;3.50;;
25637;SDS011;13496;51.040;13.680;2023-05-10T00:46:26;4.13;;;3.60;;
25637;SDS011;13496;51.040;13.680;2023-05-10T00:51:28;3.35;;;3.05;;
25637;SDS011;13496;51.040;13.680;2023-05-10T00:56:30;3.63;;;3.33;;
25637;SDS011;13496;51.040;13.680;2023-05-10T01:01:32;3.78;;;3.33;;
25637;SDS011;13496;51.040;13.680;2023-05-10T01:06:33;3.58;;;3.30;;
25637;SDS011;13496;51.040;13.680;2023-05-10T01:11:35;3.80;;;3.42;;
25637;SDS011;13496;51.040;13.680;2023-05-10T01:16:39;3.30;;;3.00;;
25637;SDS011;13496;51.040;13.680;2023-05-10T01:32:28;3.92;;;3.00;;
25637;SDS011;13496;51.040;13.680;2023-05-10T01:43:22;3.25;;;2.95;;
25637;SDS011;13496;51.040;13.680;2023-05-10T01:48:27;3.42;;;3.13;;
25637;SDS011;13496;51.040;13.680;2023-05-10T01:53:31;3.38;;;3.08;;
25637;SDS011;13496;51.040;13.680;2023-05-10T01:58:37;3.78;;;3.10;;
25637;SDS011;13496;51.040;13.680;2023-05-10T02:03:41;2.85;;;2.55;;
25637;SDS011;13496;51.040;13.680;2023-05-10T02:08:44;3.60;;;3.30;;
25637;SDS011;13496;51.040;13.680;2023-05-10T02:13:47;2.90;;;2.60;;
25637;SDS011;13496;51.040;13.680;2023-05-10T02:18:52;3.78;;;2.92;;
25637;SDS011;13496;51.040;13.680;2023-05-10T02:23:54;2.90;;;2.60;;
25637;SDS011;13496;51.040;13.680;2023-05-10T02:28:57;3.30;;;3.00;;
25637;SDS011;13496;51.040;13.680;2023-05-10T02:34:00;3.28;;;2.97;;
25637;SDS011;13496;51.040;13.680;2023-05-10T02:39:02;3.60;;;3.10;;
25637;SDS011;13496;51.040;13.680;2023-05-10T02:44:05;2.80;;;2.60;;
25637;SDS011;13496;51.040;13.680;2023-05-10T02:49:09;2.83;;;2.63;;
25637;SDS011;13496;51.040;13.680;2023-05-10T02:54:11;3.20;;;2.85;;
25637;SDS011;13496;51.040;13.680;2023-05-10T02:59:16;3.08;;;2.78;;
25637;SDS011;13496;51.040;13.680;2023-05-10T03:04:18;2.83;;;2.58;;
25637;SDS011;13496;51.040;13.680;2023-05-10T03:09:20;2.85;;;2.63;;
25637;SDS011;13496;51.040;13.680;2023-05-10T03:14:34;3.10;;;2.80;;
25637;SDS011;13496;51.040;13.680;2023-05-10T03:19:52;3.15;;;2.72;;
25637;SDS011;13496;51.040;13.680;2023-05-10T03:24:57;2.65;;;2.45;;
25637;SDS011;13496;51.040;13.680;2023-05-10T03:30:02;2.65;;;2.45;;
25637;SDS011;13496;51.040;13.680;2023-05-10T03:35:10;2.60;;;2.40;;
25637;SDS011;13496;51.040;13.680;2023-05-10T03:40:14;2.85;;;2.63;;
25637;SDS011;13496;51.040;13.680;2023-05-10T03:45:18;2.50;;;2.30;;
25637;SDS011;13496;51.040;13.680;2023-05-10T03:50:20;2.67;;;2.20;;
25637;SDS011;13496;51.040;13.680;2023-05-10T03:55:23;2.50;;;2.30;;
25637;SDS011;13496;51.040;13.680;2023-05-10T04:00:25;2.70;;;2.22;;
25637;SDS011;13496;51.040;13.680;2023-05-10T04:05:29;2.53;;;2.33;;
25637;SDS011;13496;51.040;13.680;2023-05-10T04:10:31;2.58;;;2.08;;
25637;SDS011;13496;51.040;13.680;2023-05-10T04:15:33;2.60;;;2.40;;
25637;SDS011;13496;51.040;13.680;2023-05-10T04:20:35;2.92;;;2.65;;
25637;SDS011;13496;51.040;13.680;2023-05-10T04:25:36;2.92;;;2.60;;
25637;SDS011;13496;51.040;13.680;2023-05-10T04:30:38;2.50;;;2.30;;
25637;SDS011;13496;51.040;13.680;2023-05-10T04:35:40;2.92;;;2.58;;
25637;SDS011;13496;51.040;13.680;2023-05-10T04:40:42;2.92;;;2.15;;
25637;SDS011;13496;51.040;13.680;2023-05-10T04:45:43;2.42;;;2.15;;
25637;SDS011;13496;51.040;13.680;2023-05-10T04:50:45;2.42;;;2.22;;
25637;SDS011;13496;51.040;13.680;2023-05-10T04:55:47;2.30;;;2.10;;
25637;SDS011;13496;51.040;13.680;2023-05-10T05:00:49;3.75;;;2.40;;
25637;SDS011;13496;51.040;13.680;2023-05-10T05:05:51;2.47;;;2.28;;
25637;SDS011;13496;51.040;13.680;2023-05-10T05:10:52;3.47;;;2.10;;
25637;SDS011;13496;51.040;13.680;2023-05-10T05:15:54;2.97;;;2.35;;
25637;SDS011;13496;51.040;13.680;2023-05-10T05:20:56;2.53;;;2.10;;
25637;SDS011;13496;51.040;13.680;2023-05-10T05:25:57;2.40;;;2.20;;
25637;SDS011;13496;51.040;13.680;2023-05-10T05:30:59;4.93;;;2.35;;
25637;SDS011;13496;51.040;13.680;2023-05-10T05:36:01;2.38;;;2.17;;
25637;SDS011;13496;51.040;13.680;2023-05-10T05:41:04;3.25;;;2.20;;
25637;SDS011;13496;51.040;13.680;2023-05-10T05:46:06;2.20;;;2.00;;
25637;SDS011;13496;51.040;13.680;2023-05-10T05:51:07;3.67;;;2.03;;
25637;SDS011;13496;51.040;13.680;2023-05-10T05:56:09;4.55;;;1.83;;
25637;SDS011;13496;51.040;13.680;2023-05-10T06:01:11;2.60;;;1.85;;
25637;SDS011;13496;51.040;13.680;2023-05-10T06:06:12;2.50;;;2.30;;
25637;SDS011;13496;51.040;13.680;2023-05-10T06:11:14;2.92;;;2.00;;
25637;SDS011;13496;51.040;13.680;2023-05-10T06:16:16;1.70;;;1.60;;
25637;SDS011;13496;51.040;13.680;2023-05-10T06:21:19;2.30;;;2.10;;
25637;SDS011;13496;51.040;13.680;2023-05-10T06:26:20;2.03;;;1.83;;
25637;SDS011;13496;51.040;13.680;2023-05-10T06:31:22;2.50;;;2.30;;
25637;SDS011;13496;51.040;13.680;2023-05-10T06:36:24;1.95;;;1.85;;
25637;SDS011;13496;51.040;13.680;2023-05-10T06:41:27;1.83;;;1.73;;
25637;SDS011;13496;51.040;13.680;2023-05-10T06:46:29;1.85;;;1.70;;
25637;SDS011;13496;51.040;13.680;2023-05-10T06:51:31;1.67;;;1.48;;
25637;SDS011;13496;51.040;13.680;2023-05-10T06:56:32;1.90;;;1.80;;
25637;SDS011;13496;51.040;13.680;2023-05-10T07:01:34;1.90;;;1.80;;
25637;SDS011;13496;51.040;13.680;2023-05-10T07:06:36;2.42;;;1.67;;
25637;SDS011;13496;51.040;13.680;2023-05-10T07:11:37;2.33;;;1.73;;
25637;SDS011;13496;51.040;13.680;2023-05-10T07:16:39;2.60;;;1.83;;
25637;SDS011;13496;51.040;13.680;2023-05-10T07:21:41;1.90;;;1.70;;
25637;SDS011;13496;51.040;13.680;2023-05-10T07:26:44;2.53;;;1.55;;
25637;SDS011;13496;51.040;13.680;2023-05-10T07:31:46;1.83;;;1.65;;
25637;SDS011;13496;51.040;13.680;2023-05-10T07:36:47;1.80;;;1.70;;
25637;SDS011;13496;51.040;13.680;2023-05-10T07:41:49;1.85;;;1.75;;
25637;SDS011;13496;51.040;13.680;2023-05-10T07:46:51;1.77;;;1.67;;
25637;SDS011;13496;51.040;13.680;2023-05-10T07:51:53;2.42;;;1.80;;
25637;SDS011;13496;51.040;13.680;2023-05-10T07:56:55;2.38;;;1.65;;
25637;SDS011;13496;51.040;13.680;2023-05-10T08:01:56;1.92;;;1.70;;
25637;SDS011;13496;51.040;13.680;2023-05-10T08:06:58;1.60;;;1.50;;
25637;SDS011;13496;51.040;13.680;2023-05-10T08:12:00;1.70;;;1.60;;
25637;SDS011;13496;51.040;13.680;2023-05-10T08:17:02;1.50;;;1.40;;
25637;SDS011;13496;51.040;13.680;2023-05-10T08:22:04;1.60;;;1.50;;
25637;SDS011;13496;51.040;13.680;2023-05-10T08:27:07;1.83;;;1.73;;
25637;SDS011;13496;51.040;13.680;2023-05-10T08:32:09;1.63;;;1.48;;
25637;SDS011;13496;51.040;13.680;2023-05-10T08:37:11;1.63;;;1.52;;
25637;SDS011;13496;51.040;13.680;2023-05-10T08:42:15;1.60;;;1.50;;
25637;SDS011;13496;51.040;13.680;2023-05-10T08:47:20;1.52;;;1.42;;
25637;SDS011;13496;51.040;13.680;2023-05-10T08:52:22;1.55;;;1.45;;
25637;SDS011;13496;51.040;13.680;2023-05-10T08:57:28;1.63;;;1.52;;
25637;SDS011;13496;51.040;13.680;2023-05-10T09:02:30;1.50;;;1.40;;
25637;SDS011;13496;51.040;13.680;2023-05-10T09:07:32;1.58;;;1.48;;
25637;SDS011;13496;51.040;13.680;2023-05-10T09:12:34;1.73;;;1.58;;
25637;SDS011;13496;51.040;13.680;2023-05-10T09:17:37;1.60;;;1.50;;
25637;SDS011;13496;51.040;13.680;2023-05-10T09:22:41;1.58;;;1.48;;
25637;SDS011;13496;51.040;13.680;2023-05-10T09:27:46;2.03;;;1.60;;
25637;SDS011;13496;51.040;13.680;2023-05-10T09:32:49;1.80;;;1.70;;
25637;SDS011;13496;51.040;13.680;2023-05-10T09:37:52;1.65;;;1.55;;
25637;SDS011;13496;51.040;13.680;2023-05-10T09:42:57;1.70;;;1.60;;
25637;SDS011;13496;51.040;13.680;2023-05-10T09:48:00;2.47;;;1.50;;
25637;SDS011;13496;51.040;13.680;2023-05-10T09:53:03;1.80;;;1.42;;
25637;SDS011;13496;51.040;13.680;2023-05-10T09:58:05;1.52;;;1.42;;
25637;SDS011;13496;51.040;13.680;2023-05-10T10:03:12;1.52;;;1.30;;
25637;SDS011;13496;51.040;13.680;2023-05-10T10:08:18;1.52;;;1.42;;
25637;SDS011;13496;51.040;13.680;2023-05-10T10:13:19;1.40;;;1.30;;
25637;SDS011;13496;51.040;13.680;2023-05-10T10:18:21;1.85;;;1.50;;
25637;SDS011;13496;51.040;13.680;2023-05-10T10:23:28;1.70;;;1.60;;
25637;SDS011;13496;51.040;13.680;2023-05-10T10:28:36;1.35;;;1.25;;
25637;SDS011;13496;51.040;13.680;2023-05-10T10:33:56;1.73;;;1.63;;
25637;SDS011;13496;51.040;13.680;2023-05-10T10:39:07;1.30;;;1.20;;
25637;SDS011;13496;51.040;13.680;2023-05-10T10:49:28;1.60;;;1.50;;
25637;SDS011;13496;51.040;13.680;2023-05-10T10:54:32;1.55;;;1.45;;
25637;SDS011;13496;51.040;13.680;2023-05-10T10:59:34;1.45;;;1.35;;
25637;SDS011;13496;51.040;13.680;2023-05-10T11:04:42;1.80;;;1.70;;
25637;SDS011;13496;51.040;13.680;2023-05-10T11:09:47;1.55;;;1.45;;
25637;SDS011;13496;51.040;13.680;2023-05-10T11:14:52;1.70;;;1.60;;
25637;SDS011;13496;51.040;13.680;2023-05-10T11:20:02;1.30;;;1.20;;
25637;SDS011;13496;51.040;13.680;2023-05-10T11:25:15;1.60;;;1.20;;
25637;SDS011;13496;51.040;13.680;2023-05-10T11:30:17;1.60;;;1.50;;
25637;SDS011;13496;51.040;13.680;2023-05-10T11:35:19;1.50;;;1.40;;
25637;SDS011;13496;51.040;13.680;2023-05-10T11:40:23;1.50;;;1.40;;
25637;SDS011;13496;51.040;13.680;2023-05-10T11:45:25;1.65;;;1.55;;
25637;SDS011;13496;51.040;13.680;2023-05-10T11:50:28;2.67;;;1.42;;
25637;SDS011;13496;51.040;13.680;2023-05-10T11:55:32;1.60;;;1.50;;
25637;SDS011;13496;51.040;13.680;2023-05-10T12:00:34;1.48;;;1.38;;
25637;SDS011;13496;51.040;13.680;2023-05-10T12:05:36;1.38;;;1.27;;
25637;SDS011;13496;51.040;13.680;2023-05-10T12:10:39;1.50;;;1.40;;
25637;SDS011;13496;51.040;13.680;2023-05-10T12:15:41;1.48;;;1.38;;
25637;SDS011;13496;51.040;13.680;2023-05-10T12:20:44;1.30;;;1.20;;
25637;SDS011;13496;51.040;13.680;2023-05-10T12:25:45;1.50;;;1.40;;
25637;SDS011;13496;51.040;13.680;2023-05-10T12:30:47;1.48;;;1.38;;
25637;SDS011;13496;51.040;13.680;2023-05-10T12:35:49;1.40;;;1.30;;
25637;SDS011;13496;51.040;13.680;2023-05-10T12:40:53;1.60;;;1.50;;
25637;SDS011;13496;51.040;13.680;2023-05-10T12:45:55;1.52;;;1.42;;
25637;SDS011;13496;51.040;13.680;2023-05-10T12:50:57;1.55;;;1.45;;
25637;SDS011;13496;51.040;13.680;2023-05-10T12:55:59;1.40;;;1.30;;
25637;SDS011;13496;51.040;13.680;2023-05-10T13:01:00;1.38;;;1.27;;
25637;SDS011;13496;51.040;13.680;2023-05-10T13:06:02;1.35;;;1.25;;
25637;SDS011;13496;51.040;13.680;2023-05-10T13:11:05;1.55;;;1.45;;
25637;SDS011;13496;51.040;13.680;2023-05-10T13:16:07;1.52;;;1.42;;
25637;SDS011;13496;51.040;13.680;2023-05-10T13:21:08;1.48;;;1.30;;
25637;SDS011;13496;51.040;13.680;2023-05-10T13:26:10;1.52;;;1.42;;
25637;SDS011;13496;51.040;13.680;2023-05-10T13:31:12;2.15;;;1.50;;
25637;SDS011;13496;51.040;13.680;2023-05-10T13:36:14;1.50;;;1.40;;
25637;SDS011;13496;51.040;13.680;2023-05-10T13:41:15;1.40;;;1.30;;
25637;SDS011;13496;51.040;13.680;2023-05-10T13:46:17;1.35;;;1.25;;
25637;SDS011;13496;51.040;13.680;2023-05-10T13:51:19;1.60;;;1.50;;
25637;SDS011;13496;51.040;13.680;2023-05-10T13:56:21;1.60;;;1.40;;
25637;SDS011;13496;51.040;13.680;2023-05-10T14:01:22;1.40;;;1.30;;
25637;SDS011;13496;51.040;13.680;2023-05-10T14:06:24;1.40;;;1.30;;
25637;SDS011;13496;51.040;13.680;2023-05-10T14:11:26;1.60;;;1.50;;
25637;SDS011;13496;51.040;13.680;2023-05-10T14:16:28;1.40;;;1.30;;
25637;SDS011;13496;51.040;13.680;2023-05-10T14:21:29;1.45;;;1.35;;
25637;SDS011;13496;51.040;13.680;2023-05-10T14:26:31;1.40;;;1.30;;
25637;SDS011;13496;51.040;13.680;2023-05-10T14:31:34;1.65;;;1.55;;
25637;SDS011;13496;51.040;13.680;2023-05-10T14:36:36;1.70;;;1.50;;
25637;SDS011;13496;51.040;13.680;2023-05-10T14:41:38;1.95;;;1.60;;
25637;SDS011;13496;51.040;13.680;2023-05-10T14:46:42;1.67;;;1.40;;
25637;SDS011;13496;51.040;13.680;2023-05-10T14:51:43;1.83;;;1.33;;
25637;SDS011;13496;51.040;13.680;2023-05-10T14:56:46;1.25;;;1.15;;
25637;SDS011;13496;51.040;13.680;2023-05-10T15:01:50;1.20;;;1.20;;
25637;SDS011;13496;51.040;13.680;2023-05-10T15:06:51;2.22;;;1.50;;
25637;SDS011;13496;51.040;13.680;2023-05-10T15:11:53;1.40;;;1.30;;
25637;SDS011;13496;51.040;13.680;2023-05-10T15:16:56;1.42;;;1.27;;
25637;SDS011;13496;51.040;13.680;2023-05-10T15:21:57;1.35;;;1.25;;
25637;SDS011;13496;51.040;13.680;2023-05-10T15:26:59;1.50;;;1.40;;
25637;SDS011;13496;51.040;13.680;2023-05-10T15:32:01;1.60;;;1.50;;
25637;SDS011;13496;51.040;13.680;2023-05-10T15:37:04;2.38;;;1.48;;
25637;SDS011;13496;51.040;13.680;2023-05-10T15:42:05;1.40;;;1.30;;
25637;SDS011;13496;51.040;13.680;2023-05-10T15:47:07;1.63;;;1.52;;
25637;SDS011;13496;51.040;13.680;2023-05-10T15:52:09;1.58;;;1.40;;
25637;SDS011;13496;51.040;13.680;2023-05-10T15:57:10;1.58;;;1.48;;
25637;SDS011;13496;51.040;13.680;2023-05-10T16:02:12;1.60;;;1.50;;
25637;SDS011;13496;51.040;13.680;2023-05-10T16:07:14;1.60;;;1.50;;
25637;SDS011;13496;51.040;13.680;2023-05-10T16:12:16;1.60;;;1.50;;
25637;SDS011;13496;51.040;13.680;2023-05-10T16:17:18;1.67;;;1.58;;
25637;SDS011;13496;51.040;13.680;2023-05-10T16:22:20;1.60;;;1.50;;
25637;SDS011;13496;51.040;13.680;2023-05-10T16:27:22;1.90;;;1.63;;
25637;SDS011;13496;51.040;13.680;2023-05-10T16:32:24;1.70;;;1.60;;
25637;SDS011;13496;51.040;13.680;2023-05-10T16:37:26;2.40;;;1.50;;
25637;SDS011;13496;51.040;13.680;2023-05-10T16:42:28;2.03;;;1.40;;
25637;SDS011;13496;51.040;13.680;2023-05-10T16:47:30;1.63;;;1.45;;
25637;SDS011;13496;51.040;13.680;2023-05-10T16:52:33;1.67;;;1.58;;
25637;SDS011;13496;51.040;13.680;2023-05-10T16:57:35;1.75;;;1.65;;
25637;SDS011;13496;51.040;13.680;2023-05-10T17:02:37;3.42;;;1.75;;
25637;SDS011;13496;51.040;13.680;2023-05-10T17:07:39;1.42;;;1.33;;
25637;SDS011;13496;51.040;13.680;2023-05-10T17:12:41;2.53;;;1.80;;
25637;SDS011;13496;51.040;13.680;2023-05-10T17:17:43;2.65;;;1.58;;
25637;SDS011;13496;51.040;13.680;2023-05-10T17:22:45;2.95;;;1.70;;
25637;SDS011;13496;51.040;13.680;2023-05-10T17:27:46;1.70;;;1.60;;
25637;SDS011;13496;51.040;13.680;2023-05-10T17:32:48;2.70;;;1.80;;
25637;SDS011;13496;51.040;13.680;2023-05-10T17:37:50;1.92;;;1.77;;
25637;SDS011;13496;51.040;13.680;2023-05-10T17:42:52;1.77;;;1.58;;
25637;SDS011;13496;51.040;13.680;2023-05-10T17:47:54;1.63;;;1.52;;
25637;SDS011;13496;51.040;13.680;2023-05-10T17:52:55;2.15;;;1.90;;
25637;SDS011;13496;51.040;13.680;2023-05-10T17:57:57;2.05;;;1.80;;
25637;SDS011;13496;51.040;13.680;2023-05-10T18:03:01;2.85;;;1.88;;
25637;SDS011;13496;51.040;13.680;2023-05-10T18:08:03;2.67;;;1.83;;
25637;SDS011;13496;51.040;13.680;2023-05-10T18:13:05;2.25;;;1.90;;
25637;SDS011;13496;51.040;13.680;2023-05-10T18:18:07;2.38;;;1.77;;
25637;SDS011;13496;51.040;13.680;2023-05-10T18:23:09;1.83;;;1.70;;
25637;SDS011;13496;51.040;13.680;2023-05-10T18:28:11;2.33;;;1.70;;
25637;SDS011;13496;51.040;13.680;2023-05-10T18:33:12;3.08;;;1.38;;
25637;SDS011;13496;51.040;13.680;2023-05-10T18:38:14;3.17;;;1.85;;
25637;SDS011;13496;51.040;13.680;2023-05-10T18:43:16;2.30;;;1.83;;
25637;SDS011;13496;51.040;13.680;2023-05-10T18:48:17;2.00;;;1.55;;
25637;SDS011;13496;51.040;13.680;2023-05-10T18:53:19;2.00;;;1.80;;
25637;SDS011;13496;51.040;13.680;2023-05-10T18:58:21;2.00;;;1.80;;
25637;SDS011;13496;51.040;13.680;2023-05-10T19:03:23;1.90;;;1.75;;
25637;SDS011;13496;51.040;13.680;2023-05-10T19:08:24;1.77;;;1.60;;
25637;SDS011;13496;51.040;13.680;2023-05-10T19:13:26;1.73;;;1.60;;
25637;SDS011;13496;51.040;13.680;2023-05-10T19:18:29;2.15;;;1.83;;
25637;SDS011;13496;51.040;13.680;2023-05-10T19:23:31;2.10;;;1.50;;
25637;SDS011;13496;51.040;13.680;2023-05-10T19:28:33;3.35;;;1.70;;
25637;SDS011;13496;51.040;13.680;2023-05-10T19:33:35;2.00;;;1.80;;
25637;SDS011;13496;51.040;13.680;2023-05-10T19:38:37;2.65;;;1.70;;
25637;SDS011;13496;51.040;13.680;2023-05-10T19:43:39;2.30;;;1.77;;
25637;SDS011;13496;51.040;13.680;2023-05-10T19:48:42;2.10;;;1.70;;
25637;SDS011;13496;51.040;13.680;2023-05-10T19:53:43;1.75;;;1.65;;
25637;SDS011;13496;51.040;13.680;2023-05-10T19:58:45;2.15;;;1.90;;
25637;SDS011;13496;51.040;13.680;2023-05-10T20:03:47;1.73;;;1.63;;
25637;SDS011;13496;51.040;13.680;2023-05-10T20:08:48;2.47;;;1.60;;
25637;SDS011;13496;51.040;13.680;2023-05-10T20:13:50;2.08;;;1.60;;
25637;SDS011;13496;51.040;13.680;2023-05-10T20:18:52;1.52;;;1.42;;
25637;SDS011;13496;51.040;13.680;2023-05-10T20:23:53;2.25;;;1.60;;
25637;SDS011;13496;51.040;13.680;2023-05-10T20:28:55;1.90;;;1.80;;
25637;SDS011;13496;51.040;13.680;2023-05-10T20:33:57;3.20;;;1.52;;
25637;SDS011;13496;51.040;13.680;2023-05-10T20:38:58;1.80;;;1.70;;
25637;SDS011;13496;51.040;13.680;2023-05-10T20:44:00;1.65;;;1.55;;
25637;SDS011;13496;51.040;13.680;2023-05-10T20:49:02;1.58;;;1.48;;
25637;SDS011;13496;51.040;13.680;2023-05-10T20:54:04;3.08;;;1.60;;
25637;SDS011;13496;51.040;13.680;2023-05-10T20:59:06;1.50;;;1.40;;
25637;SDS011;13496;51.040;13.680;2023-05-10T21:04:07;1.67;;;1.40;;
25637;SDS011;13496;51.040;13.680;2023-05-10T21:09:09;2.28;;;1.60;;
25637;SDS011;13496;51.040;13.680;2023-05-10T21:14:11;2.03;;;1.58;;
25637;SDS011;13496;51.040;13.680;2023-05-10T21:19:14;1.85;;;1.63;;
25637;SDS011;13496;51.040;13.680;2023-05-10T21:24:17;2.35;;;1.60;;
25637;SDS011;13496;51.040;13.680;2023-05-10T21:29:18;1.83;;;1.70;;
25637;SDS011;13496;51.040;13.680;2023-05-10T21:34:20;1.70;;;1.60;;
25637;SDS011;13496;51.040;13.680;2023-05-10T21:39:22;1.50;;;1.40;;
25637;SDS011;13496;51.040;13.680;2023-05-10T21:44:24;1.65;;;1.52;;
25637;SDS011;13496;51.040;13.680;2023-05-10T21:49:25;1.70;;;1.50;;
25637;SDS011;13496;51.040;13.680;2023-05-10T21:54:27;1.92;;;1.48;;
25637;SDS011;13496;51.040;13.680;2023-05-10T21:59:29;1.95;;;1.30;;
25637;SDS011;13496;51.040;13.680;2023-05-10T22:04:30;2.45;;;1.38;;
25637;SDS011;13496;51.040;13.680;2023-05-10T22:09:32;1.63;;;1.52;;
25637;SDS011;13496;51.040;13.680;2023-05-10T22:14:34;1.67;;;1.58;;
25637;SDS011;13496;51.040;13.680;2023-05-10T22:19:35;1.67;;;1.42;;
25637;SDS011;13496;51.040;13.680;2023-05-10T22:24:37;1.60;;;1.40;;
25637;SDS011;13496;51.040;13.680;2023-05-10T22:29:39;1.58;;;1.45;;
25637;SDS011;13496;51.040;13.680;2023-05-10T22:34:40;1.60;;;1.50;;
25637;SDS011;13496;51.040;13.680;2023-05-10T22:39:47;1.67;;;1.58;;
25637;SDS011;13496;51.040;13.680;2023-05-10T22:44:49;1.70;;;1.60;;
25637;SDS011;13496;51.040;13.680;2023-05-10T22:49:50;1.30;;;1.20;;
25637;SDS011;13496;51.040;13.680;2023-05-10T22:54:52;1.65;;;1.55;;
25637;SDS011;13496;51.040;13.680;2023-05-10T22:59:54;1.60;;;1.50;;
25637;SDS011;13496;51.040;13.680;2023-05-10T23:04:55;1.88;;;1.55;;
25637;SDS011;13496;51.040;13.680;2023-05-10T23:09:57;1.55;;;1.42;;
25637;SDS011;13496;51.040;13.680;2023-05-10T23:14:59;1.50;;;1.40;;
25637;SDS011;13496;51.040;13.680;2023-05-10T23:20:01;1.50;;;1.40;;
25637;SDS011;13496;51.040;13.680;2023-05-10T23:25:03;1.88;;;1.58;;
25637;SDS011;13496;51.040;13.680;2023-05-10T23:30:05;3.53;;;1.60;;
25637;SDS011;13496;51.040;13.680;2023-05-10T23:35:07;1.58;;;1.48;;
25637;SDS011;13496;51.040;13.680;2023-05-10T23:40:09;1.70;;;1.60;;
25637;SDS011;13496;51.040;13.680;2023-05-10T23:45:11;1.60;;;1.50;;
25637;SDS011;13496;51.040;13.680;2023-05-10T23:50:12;2.45;;;1.20;;
25637;SDS011;13496;51.040;13.680;2023-05-10T23:55:14;1.33;;;1.23;;
